Time;durP1;ratioP1;P1;durP2;ratioP2;P2;SDS_P1;SDS_P2;PMS_P1;PMS_P2;Temp;Humidity;BMP_temperature;BMP_pressure;BME280_temperature;BME280_humidity;BME280_pressure;Samples;Min_cycle;Max_cycle;Signal;HPM_P1;HPM_P2
2022/11/03 05:02:21;;;;;;;1999.90;999.90;;;3.50;99.90;;;;;;5139597;23;20528;-74
2022/11/03 05:04:46;;;;;;;1999.90;999.90;;;3.50;99.90;;;;;;4994312;28;20058;-75
2022/11/03 05:07:31;;;;;;;1999.90;999.90;;;3.50;99.90;;;;;;4993212;28;20034;-74
2022/11/03 05:09:57;;;;;;;1999.90;999.90;;;3.50;99.90;;;;;;4994976;28;20520;-74
2022/11/03 05:12:23;;;;;;;1999.90;999.90;;;3.60;99.90;;;;;;4995077;28;20070;-74
2022/11/03 05:14:49;;;;;;;1999.90;999.90;;;3.60;99.90;;;;;;4995552;28;20113;-74
2022/11/03 05:17:21;;;;;;;1999.90;999.90;;;3.50;99.90;;;;;;5008293;23;20047;-74
2022/11/03 05:19:49;;;;;;;1999.90;999.90;;;3.40;99.90;;;;;;4994508;28;20042;-74
2022/11/03 05:22:21;;;;;;;1999.90;999.90;;;3.50;99.90;;;;;;4994531;28;20053;-73
2022/11/03 05:24:48;;;;;;;1999.90;999.90;;;3.40;99.90;;;;;;4994216;28;20031;-74
2022/11/03 05:27:21;;;;;;;1999.90;999.90;;;3.40;99.90;;;;;;4992544;28;20043;-74
2022/11/03 05:29:48;;;;;;;1999.90;999.90;;;3.40;99.90;;;;;;4992922;28;20043;-74
2022/11/03 05:32:23;;;;;;;1999.90;999.90;;;3.50;99.90;;;;;;4992974;28;20125;-74
2022/11/03 05:34:53;;;;;;;1999.90;999.90;;;3.50;99.90;;;;;;4994313;28;20514;-74
2022/11/03 05:37:32;;;;;;;1999.90;999.90;;;3.50;99.90;;;;;;4994237;28;20042;-74
2022/11/03 05:40:01;;;;;;;1999.90;999.90;;;3.40;99.90;;;;;;4997775;28;20496;-74
2022/11/03 05:42:38;;;;;;;1999.90;999.90;;;3.40;99.90;;;;;;4997613;28;20496;-74
2022/11/03 05:45:22;;;;;;;1999.90;999.90;;;3.60;99.90;;;;;;4997318;28;20560;-74
2022/11/03 05:47:49;;;;;;;1999.90;999.90;;;3.60;99.90;;;;;;4997764;28;20049;-76
2022/11/03 05:50:26;;;;;;;1999.90;999.90;;;3.60;99.90;;;;;;4996063;28;20030;-74
2022/11/03 05:52:59;;;;;;;1999.90;999.90;;;3.60;99.90;;;;;;4997572;28;20031;-74
2022/11/03 05:55:28;;;;;;;1999.90;999.90;;;3.60;99.90;;;;;;4995669;28;20027;-74
2022/11/03 05:58:13;;;;;;;1999.90;999.90;;;3.60;99.90;;;;;;4995932;28;20424;-74
2022/11/03 06:00:40;;;;;;;1999.90;999.90;;;3.50;99.90;;;;;;4997510;28;20043;-74
2022/11/03 06:03:08;;;;;;;1999.90;999.90;;;3.50;99.90;;;;;;4997303;28;20504;-76
2022/11/03 06:05:34;;;;;;;1999.90;999.90;;;3.50;99.90;;;;;;4995353;28;20030;-78
2022/11/03 06:08:11;;;;;;;1999.90;999.90;;;3.50;99.90;;;;;;4985776;28;20042;-76
2022/11/03 06:10:44;;;;;;;1999.90;999.90;;;3.30;99.90;;;;;;4976147;28;20040;-74
2022/11/03 06:13:23;;;;;;;1999.90;999.90;;;3.20;99.90;;;;;;4977792;28;20122;-75
2022/11/03 06:15:56;;;;;;;1999.90;999.90;;;3.20;99.90;;;;;;4976950;28;20035;-75
2022/11/03 06:18:25;;;;;;;1999.90;999.90;;;3.20;99.90;;;;;;4977221;28;20035;-73
2022/11/03 06:20:54;;;;;;;1999.90;999.90;;;3.30;99.90;;;;;;4977451;28;20062;-74
2022/11/03 06:23:21;;;;;;;1999.90;999.90;;;3.40;99.90;;;;;;4975947;28;20035;-74
2022/11/03 06:25:49;;;;;;;1999.90;999.90;;;3.40;99.90;;;;;;4975275;28;20043;-74
2022/11/03 06:28:19;;;;;;;1999.90;999.90;;;3.30;99.90;;;;;;4977104;28;20118;-74
2022/11/03 06:30:46;;;;;;;1999.90;999.90;;;3.40;99.90;;;;;;4975823;28;20059;-73
2022/11/03 06:33:17;;;;;;;1999.90;999.90;;;3.40;99.90;;;;;;4977111;28;20482;-74
2022/11/03 06:35:43;;;;;;;1999.90;999.90;;;3.50;99.90;;;;;;4975557;28;20035;-74
2022/11/03 06:38:17;;;;;;;1999.90;999.90;;;3.60;99.90;;;;;;4977256;28;20492;-74
2022/11/03 06:40:43;;;;;;;1999.90;999.90;;;3.60;99.90;;;;;;4973667;28;20071;-74
2022/11/03 06:43:18;;;;;;;1999.90;999.90;;;3.60;99.90;;;;;;4974133;28;20058;-74
2022/11/03 06:45:48;;;;;;;1999.90;999.90;;;3.70;99.90;;;;;;4976637;28;20038;-75
2022/11/03 06:48:19;;;;;;;1999.90;999.90;;;3.70;99.90;;;;;;4991781;28;20043;-74
2022/11/03 06:50:45;;;;;;;1999.90;999.90;;;3.80;99.90;;;;;;4976258;28;20801;-75
2022/11/03 06:53:11;;;;;;;1999.90;999.90;;;3.90;99.90;;;;;;4991668;28;20035;-75
2022/11/03 06:55:39;;;;;;;1999.90;999.90;;;4.00;99.90;;;;;;4976688;28;20564;-75
2022/11/03 06:58:31;;;;;;;1999.90;999.90;;;4.10;99.90;;;;;;4977056;28;20482;-75
2022/11/03 07:01:00;;;;;;;1999.90;999.90;;;4.20;99.90;;;;;;4977204;28;20038;-76
2022/11/03 07:03:29;;;;;;;1999.90;999.90;;;4.30;99.90;;;;;;4976625;28;20420;-76
2022/11/03 07:06:20;;;;;;;1999.90;999.90;;;4.30;99.90;;;;;;4976264;28;20097;-75
2022/11/03 07:08:48;;;;;;;1999.90;999.90;;;4.30;99.90;;;;;;4991820;28;20043;-75
2022/11/03 07:11:18;;;;;;;1999.90;999.90;;;4.30;99.90;;;;;;4992180;28;20070;-81
2022/11/03 07:13:45;;;;;;;1999.90;999.90;;;4.40;99.90;;;;;;4991733;28;20499;-76
2022/11/03 07:16:20;;;;;;;1999.90;999.90;;;4.40;99.90;;;;;;4975571;28;20050;-75
2022/11/03 07:18:46;;;;;;;1999.90;999.90;;;4.50;99.90;;;;;;4991559;28;20118;-76
2022/11/03 07:21:29;;;;;;;1999.90;999.90;;;4.60;99.90;;;;;;4976710;28;20515;-77
2022/11/03 07:23:56;;;;;;;1999.90;999.90;;;4.70;99.90;;;;;;4991566;28;20046;-76
2022/11/03 07:26:22;;;;;;;1999.90;999.90;;;4.80;99.90;;;;;;4975928;28;20129;-76
2022/11/03 07:28:48;;;;;;;1999.90;999.90;;;4.90;99.90;;;;;;4990874;28;20108;-76
2022/11/03 07:31:19;;;;;;;1999.90;999.90;;;5.00;99.90;;;;;;4976457;28;20443;-76
2022/11/03 07:33:45;;;;;;;1999.90;999.90;;;5.00;99.90;;;;;;4976405;28;20090;-76
2022/11/03 07:36:15;;;;;;;1999.90;999.90;;;5.20;99.90;;;;;;4975962;28;20042;-76
2022/11/03 07:38:43;;;;;;;1999.90;999.90;;;5.30;99.90;;;;;;4976001;28;20031;-76
2022/11/03 07:41:17;;;;;;;1999.90;999.90;;;5.30;99.90;;;;;;4976004;28;20537;-76
2022/11/03 07:43:53;;;;;;;1999.90;999.90;;;5.40;99.90;;;;;;4976287;28;20038;-76
2022/11/03 07:46:20;;;;;;;1999.90;999.90;;;5.50;99.90;;;;;;4975752;28;20037;-77
2022/11/03 07:48:48;;;;;;;1999.90;999.90;;;5.70;99.90;;;;;;4976201;28;20034;-76
2022/11/03 07:51:31;;;;;;;1999.90;999.90;;;5.80;99.90;;;;;;4976095;28;20515;-77
2022/11/03 07:54:27;;;;;;;1999.90;999.90;;;5.90;99.90;;;;;;4976217;28;20035;-76
2022/11/03 07:56:57;;;;;;;1999.90;999.90;;;6.10;99.90;;;;;;4975747;28;20110;-76
2022/11/03 07:59:31;;;;;;;1999.90;999.90;;;6.10;99.90;;;;;;4975919;28;20056;-77
2022/11/03 08:01:57;;;;;;;1999.90;999.90;;;6.30;99.90;;;;;;4976193;28;20126;-76
2022/11/03 08:04:33;;;;;;;1999.90;999.90;;;6.30;99.90;;;;;;4990380;28;20032;-76
2022/11/03 08:06:58;;;;;;;1999.90;999.90;;;6.50;99.90;;;;;;4975306;28;20047;-76
2022/11/03 08:09:24;;;;;;;1999.90;999.90;;;6.60;99.90;;;;;;4975771;28;20042;-76
2022/11/03 08:11:50;;;;;;;1999.90;999.90;;;6.70;99.90;;;;;;4975743;28;20067;-75
2022/11/03 08:14:16;;;;;;;1999.90;999.90;;;6.90;99.90;;;;;;4975751;28;20027;-76
2022/11/03 08:16:42;;;;;;;1999.90;999.90;;;7.00;99.90;;;;;;4974422;28;20035;-76
2022/11/03 08:19:08;;;;;;;1999.90;999.90;;;7.10;99.90;;;;;;4975761;28;20460;-77
2022/11/03 08:21:34;;;;;;;1999.90;999.90;;;7.20;99.90;;;;;;4990336;28;20043;-76
2022/11/03 08:23:59;;;;;;;1999.90;999.90;;;7.40;99.90;;;;;;4990304;28;20043;-76
2022/11/03 08:26:25;;;;;;;1999.90;999.90;;;7.40;99.90;;;;;;4989731;28;20078;-76
2022/11/03 08:28:51;;;;;;;1999.90;999.90;;;7.50;99.90;;;;;;4975544;28;20482;-76
2022/11/03 08:31:17;;;;;;;1999.90;999.90;;;7.60;99.90;;;;;;4989746;28;20122;-76
2022/11/03 08:33:43;;;;;;;1999.90;999.90;;;7.70;99.90;;;;;;4980022;28;20042;-77
2022/11/03 08:36:09;;;;;;;1999.90;999.90;;;7.70;99.90;;;;;;4976303;28;20035;-77
2022/11/03 08:38:35;;;;;;;1999.90;999.90;;;7.70;99.90;;;;;;4983371;28;20035;-76
2022/11/03 08:41:01;;;;;;;1999.90;999.90;;;7.70;99.90;;;;;;4971639;28;20074;-79
2022/11/03 08:43:26;;;;;;;1999.90;999.90;;;7.80;99.90;;;;;;4975963;28;20409;-76
2022/11/03 08:45:53;;;;;;;1999.90;999.90;;;7.80;99.90;;;;;;4975152;28;20482;-78
2022/11/03 08:48:20;;;;;;;1999.90;999.90;;;7.90;99.90;;;;;;5000855;28;20074;-80
2022/11/03 08:50:47;;;;;;;1999.90;999.90;;;7.90;99.90;;;;;;5010123;28;20038;-78
2022/11/03 08:53:12;;;;;;;1999.90;999.90;;;7.90;99.90;;;;;;4994872;28;20515;-78
2022/11/03 08:55:39;;;;;;;1999.90;999.90;;;8.00;99.90;;;;;;4994646;28;20034;-78
2022/11/03 08:58:05;;;;;;;1999.90;999.90;;;8.10;99.90;;;;;;4970270;28;20484;-78
2022/11/03 09:00:31;;;;;;;1999.90;999.90;;;8.10;99.90;;;;;;4955564;28;20043;-79
2022/11/03 09:02:57;;;;;;;1999.90;999.90;;;8.20;99.90;;;;;;4970177;28;20092;-79
2022/11/03 09:05:22;;;;;;;1999.90;999.90;;;8.40;99.90;;;;;;4955436;28;20075;-79
2022/11/03 09:07:48;;;;;;;1999.90;999.90;;;8.40;99.90;;;;;;4955704;28;20039;-79
2022/11/03 09:10:13;;;;;;;1999.90;999.90;;;8.50;99.90;;;;;;4955726;28;20042;-79
2022/11/03 09:12:39;;;;;;;1999.90;999.90;;;8.70;99.90;;;;;;4955809;28;20044;-79
2022/11/03 09:15:05;;;;;;;1999.90;999.90;;;8.80;99.90;;;;;;4958878;28;20039;-79
2022/11/03 09:17:31;;;;;;;1999.90;999.90;;;8.90;99.90;;;;;;4958746;28;20050;-79
2022/11/03 09:19:57;;;;;;;1999.90;999.90;;;9.00;99.90;;;;;;4959078;28;20087;-79
2022/11/03 09:22:22;;;;;;;1999.90;999.90;;;9.10;99.90;;;;;;4958924;28;20655;-79
2022/11/03 09:24:48;;;;;;;1999.90;999.90;;;9.20;99.90;;;;;;4958615;28;20500;-79
2022/11/03 09:27:14;;;;;;;1999.90;999.90;;;9.30;99.90;;;;;;4958816;28;20516;-80
2022/11/03 09:29:39;;;;;;;1999.90;999.90;;;9.40;99.90;;;;;;4958856;28;20039;-79
2022/11/03 09:32:05;;;;;;;1999.90;999.90;;;9.60;99.90;;;;;;4958847;28;20040;-79
2022/11/03 09:34:31;;;;;;;1999.90;999.90;;;9.70;99.90;;;;;;4973201;28;20032;-78
2022/11/03 09:36:57;;;;;;;1999.90;999.90;;;9.80;99.90;;;;;;4972023;28;20046;-78
2022/11/03 09:39:22;;;;;;;1999.90;999.90;;;9.90;99.90;;;;;;4977695;28;20047;-79
2022/11/03 09:41:49;;;;;;;1999.90;999.90;;;10.10;99.90;;;;;;4975095;28;20094;-78
2022/11/03 09:44:14;;;;;;;1999.90;999.90;;;10.30;99.90;;;;;;4975465;28;20087;-78
2022/11/03 09:46:40;;;;;;;1999.90;999.90;;;10.30;99.90;;;;;;4975197;28;20043;-78
2022/11/03 09:49:06;;;;;;;1999.90;999.90;;;10.40;99.90;;;;;;4984799;28;20039;-78
2022/11/03 09:51:34;;;;;;;1999.90;999.90;;;10.50;99.90;;;;;;4985940;28;20043;-79
2022/11/03 09:54:03;;;;;;;1999.90;999.90;;;10.60;99.90;;;;;;4987017;28;20050;-79
2022/11/03 09:56:29;;;;;;;1999.90;999.90;;;10.80;99.90;;;;;;4988296;28;20122;-79
2022/11/03 09:58:55;;;;;;;1999.90;999.90;;;11.00;99.90;;;;;;4966431;28;20036;-78
2022/11/03 10:01:22;;;;;;;1999.90;999.90;;;11.30;99.90;;;;;;4972014;28;20094;-79
2022/11/03 10:03:47;;;;;;;1999.90;999.90;;;11.50;99.90;;;;;;4984824;28;20127;-78
2022/11/03 10:06:15;;;;;;;1999.90;999.90;;;11.60;99.90;;;;;;4960291;28;20143;-78
2022/11/03 10:08:43;;;;;;;1999.90;999.90;;;11.70;99.90;;;;;;4965672;28;20042;-78
2022/11/03 10:11:09;;;;;;;1999.90;999.90;;;11.80;99.90;;;;;;4967355;28;20387;-80
2022/11/03 10:13:46;;;;;;;1999.90;999.90;;;12.00;99.90;;;;;;4979724;28;20045;-79
2022/11/03 10:16:17;;;;;;;1999.90;999.90;;;12.20;99.90;;;;;;4969574;28;20200;-80
2022/11/03 10:18:42;;;;;;;1999.90;999.90;;;12.30;99.90;;;;;;4977435;28;20513;-79
2022/11/03 10:21:18;;;;;;;1999.90;999.90;;;12.30;99.90;;;;;;4968161;28;20118;-80
2022/11/03 10:23:44;;;;;;;1999.90;999.90;;;12.50;99.90;;;;;;4961289;28;20485;-80
2022/11/03 10:26:12;;;;;;;1999.90;999.90;;;12.60;99.90;;;;;;4967315;28;20039;-80
2022/11/03 10:28:39;;;;;;;1999.90;999.90;;;12.80;99.90;;;;;;4963487;28;20036;-80
2022/11/03 10:31:16;;;;;;;1999.90;999.90;;;13.00;99.90;;;;;;4979779;28;20577;-80
2022/11/03 10:33:53;;;;;;;1999.90;999.90;;;13.10;99.90;;;;;;4966071;28;20036;-80
2022/11/03 10:36:19;;;;;;;1999.90;999.90;;;13.30;99.90;;;;;;4971737;28;20074;-80
2022/11/03 10:38:46;;;;;;;1999.90;999.90;;;13.50;99.90;;;;;;4977907;28;20141;-80
2022/11/03 10:41:14;;;;;;;1999.90;999.90;;;13.50;99.90;;;;;;4993093;28;20457;-80
2022/11/03 10:43:42;;;;;;;1999.90;999.90;;;13.60;99.90;;;;;;4978050;28;20098;-80
2022/11/03 10:46:12;;;;;;;1999.90;999.90;;;13.80;99.90;;;;;;4992517;28;20035;-80
2022/11/03 10:48:38;;;;;;;1999.90;999.90;;;14.00;99.90;;;;;;4978211;28;20066;-80
2022/11/03 10:51:04;;;;;;;1999.90;999.90;;;14.20;99.90;;;;;;4992948;28;20071;-81
2022/11/03 10:53:30;;;;;;;1999.90;999.90;;;14.20;99.90;;;;;;4977419;28;20386;-80
2022/11/03 10:55:56;;;;;;;1999.90;999.90;;;14.10;99.90;;;;;;4977492;28;20121;-80
2022/11/03 10:58:22;;;;;;;1999.90;999.90;;;13.90;99.90;;;;;;4978070;28;20114;-80
2022/11/03 11:00:48;;;;;;;1999.90;999.90;;;13.90;99.90;;;;;;4977858;28;20031;-80
2022/11/03 11:03:13;;;;;;;1999.90;999.90;;;13.90;99.90;;;;;;4993289;28;20370;-81
2022/11/03 11:05:46;;;;;;;1999.90;999.90;;;14.00;99.90;;;;;;4992117;28;20095;-80
2022/11/03 11:08:17;;;;;;;1999.90;999.90;;;14.40;99.90;;;;;;4993427;28;20043;-80
2022/11/03 11:10:44;;;;;;;1999.90;999.90;;;14.50;99.90;;;;;;4992844;28;20035;-80
2022/11/03 11:13:22;;;;;;;1999.90;999.90;;;14.70;99.90;;;;;;4991588;28;20569;-79
2022/11/03 11:15:49;;;;;;;1999.90;999.90;;;15.00;99.90;;;;;;5024791;23;20536;-78
2022/11/03 11:18:47;;;;;;;1999.90;999.90;;;14.90;99.90;;;;;;5036936;28;20411;-78
2022/11/03 11:21:16;;;;;;;1999.90;999.90;;;14.90;99.90;;;;;;5034531;28;20041;-80
2022/11/03 11:23:43;;;;;;;1999.90;999.90;;;14.90;99.90;;;;;;5036620;28;20510;-79
2022/11/03 11:26:08;;;;;;;1999.90;999.90;;;15.00;99.90;;;;;;5029523;28;20045;-79
2022/11/03 11:28:39;;;;;;;1999.90;999.90;;;14.90;99.90;;;;;;5017286;28;20042;-79
2022/11/03 11:31:38;;;;;;;1999.90;999.90;;;15.00;99.90;;;;;;5017274;28;20050;-79
2022/11/03 11:34:09;;;;;;;1999.90;999.90;;;14.90;99.90;;;;;;4982489;28;20042;-79
2022/11/03 11:36:40;;;;;;;1999.90;999.90;;;14.90;99.90;;;;;;5015103;28;20570;-79
2022/11/03 11:39:26;;;;;;;1999.90;999.90;;;15.00;99.90;;;;;;5016550;28;20460;-79
2022/11/03 11:42:16;;;;;;;1999.90;999.90;;;15.00;99.90;;;;;;5016249;28;20038;-81
2022/11/03 11:44:41;;;;;;;1999.90;999.90;;;14.90;99.90;;;;;;5017677;28;20030;-79
2022/11/03 11:47:39;;;;;;;1999.90;999.90;;;15.00;99.90;;;;;;5017360;28;20412;-80
2022/11/03 11:50:13;;;;;;;1999.90;999.90;;;14.90;99.90;;;;;;5004464;28;20093;-79
2022/11/03 11:52:59;;;;;;;1999.90;999.90;;;14.80;99.90;;;;;;5014390;28;20034;-79
2022/11/03 11:55:42;;;;;;;1999.90;999.90;;;14.90;99.90;;;;;;5015152;28;20084;-84
2022/11/03 11:58:43;;;;;;;1999.90;999.90;;;14.80;99.90;;;;;;5015007;28;20035;-80
2022/11/03 12:01:32;;;;;;;1999.90;999.90;;;14.80;99.90;;;;;;5015323;28;20034;-78
2022/11/03 12:04:07;;;;;;;1999.90;999.90;;;14.90;99.90;;;;;;5017091;28;20041;-82
2022/11/03 12:06:35;;;;;;;1999.90;999.90;;;15.00;99.90;;;;;;5013340;28;20166;-77
2022/11/03 12:09:22;;;;;;;1999.90;999.90;;;15.10;99.90;;;;;;5015249;28;20594;-78
2022/11/03 12:11:50;;;;;;;1999.90;999.90;;;15.00;99.90;;;;;;5014824;28;20105;-78
2022/11/03 12:14:28;;;;;;;1999.90;999.90;;;15.00;99.90;;;;;;5014978;28;20033;-78
2022/11/03 12:16:58;;;;;;;1999.90;999.90;;;15.10;99.90;;;;;;5014258;28;20038;-78
2022/11/03 12:19:38;;;;;;;1999.90;999.90;;;15.00;99.90;;;;;;5013576;28;20923;-78
2022/11/03 12:22:06;;;;;;;1999.90;999.90;;;14.90;99.90;;;;;;5014638;28;20046;-78
2022/11/03 12:24:35;;;;;;;1999.90;999.90;;;15.20;99.90;;;;;;5014565;28;20035;-79
2022/11/03 12:27:01;;;;;;;1999.90;999.90;;;15.10;99.90;;;;;;5012848;28;20456;-77
2022/11/03 12:29:27;;;;;;;1999.90;999.90;;;15.10;99.90;;;;;;5014900;28;20092;-76
2022/11/03 12:31:53;;;;;;;1999.90;999.90;;;15.00;99.90;;;;;;5014979;28;20089;-77
2022/11/03 12:34:18;;;;;;;1999.90;999.90;;;15.10;99.90;;;;;;5013466;28;20026;-78
2022/11/03 12:36:44;;;;;;;1999.90;999.90;;;15.00;99.90;;;;;;5014396;28;20070;-77
2022/11/03 12:39:11;;;;;;;1999.90;999.90;;;14.90;99.90;;;;;;5013202;28;20133;-77
2022/11/03 12:41:36;;;;;;;1999.90;999.90;;;14.80;99.90;;;;;;5014739;28;20747;-78
2022/11/03 12:44:02;;;;;;;1999.90;999.90;;;14.90;99.90;;;;;;5014802;28;20041;-78
2022/11/03 12:46:28;;;;;;;1999.90;999.90;;;14.80;99.90;;;;;;5012446;28;20519;-77
2022/11/03 12:48:53;;;;;;;1999.90;999.90;;;14.80;99.90;;;;;;5016544;28;20038;-80
2022/11/03 12:51:21;;;;;;;1999.90;999.90;;;14.80;99.90;;;;;;5019877;28;20042;-80
2022/11/03 12:53:47;;;;;;;1999.90;999.90;;;14.70;99.90;;;;;;5019813;28;20026;-80
2022/11/03 12:56:13;;;;;;;1999.90;999.90;;;14.70;99.90;;;;;;5019019;28;20387;-79
2022/11/03 12:58:40;;;;;;;1999.90;999.90;;;14.70;99.90;;;;;;5018386;28;20058;-78
2022/11/03 13:01:06;;;;;;;1999.90;999.90;;;14.70;99.90;;;;;;5018182;28;20046;-79
2022/11/03 13:03:33;;;;;;;1999.90;999.90;;;14.60;99.90;;;;;;5019537;28;20039;-80
2022/11/03 13:05:59;;;;;;;1999.90;999.90;;;14.70;99.90;;;;;;5017730;28;20050;-78
2022/11/03 13:08:25;;;;;;;1999.90;999.90;;;14.70;99.90;;;;;;5017857;28;20058;-79
2022/11/03 13:10:51;;;;;;;1999.90;999.90;;;14.80;99.90;;;;;;5019835;28;20054;-80
2022/11/03 13:13:17;;;;;;;1999.90;999.90;;;14.90;99.90;;;;;;5019505;28;20044;-78
2022/11/03 13:15:43;;;;;;;1999.90;999.90;;;14.80;99.90;;;;;;5019275;28;20030;-80
2022/11/03 13:18:09;;;;;;;1999.90;999.90;;;14.90;99.90;;;;;;5019784;28;20030;-80
2022/11/03 13:20:35;;;;;;;1999.90;999.90;;;15.00;99.90;;;;;;5019902;28;20491;-79
2022/11/03 13:23:01;;;;;;;1999.90;999.90;;;15.00;99.90;;;;;;5020470;28;20507;-80
2022/11/03 13:25:27;;;;;;;1999.90;999.90;;;15.10;99.90;;;;;;5019444;28;20069;-80
2022/11/03 13:27:53;;;;;;;1999.90;999.90;;;15.10;99.90;;;;;;5020413;28;20035;-79
